x

Half Moon Bay - 24nm Ssw Of San Francisco, Ca (46012) Wave Buoy

9:50am - Fri 28th Jul 2017 All times are PDT. -7 hours from GMT.

  • Sig Wave height 10.5ft
  • Swell Direction
  • Peak Period 9s
  • Average Period 8s
  • Wind
    18mph, 20mph gusts
  • Sea Temp 56°f
  • Air Temp 55°f
  • Sea Pressure 1014.7mb
  • Half Moon Bay - 24nm Ssw Of San Francisco, Ca
  • Half Moon Bay - 24nm Ssw Of San Francisco, Ca

More Historic Weather Station data

Upgrade to MSW Pro to gain access to the past 30 days of data for over 8000 Wavebouys and Weather Stations around the globe.

Join Pro

Comparision Forecast

View Surf forecast
   
Fri 07/28 9:50am 10.5ft 9s 8s 18 20 mph 1014.7mb 56f 55f
8:50am 9.5ft 9s 7s 18 20 mph 1014.3mb 56f 55f
7:50am 9ft 9s 7s 16 20 mph 1014.1mb 56f 55f
6:50am 9ft 9s 7s 18 22 mph 1013.7mb 56f 55f
5:50am 8.5ft 9s 7s 18 22 mph 1013mb 56f 55f
4:50am 8ft 8s 7s 18 20 mph 1012.7mb 56f 55f
3:50am 8ft 9s 7s 18 22 mph 1012.6mb 56f 56f
2:50am 8ft 9s 7s 16 18 mph 1012.7mb 56f 56f
1:50am 7ft 9s 7s 13 16 mph 1013.1mb 56f 57f
12:50am 8ft 9s 7s 13 18 mph 1013.2mb 57f 57f
Thu 07/27 11:50pm 7.5ft 9s 7s 16 20 mph 1013.3mb 57f 57f
10:50pm 7ft 9s 7s 16 20 mph 1013.5mb 57f 58f
9:50pm 7ft 9s 7s 16 20 mph 1013.5mb 57f 58f
8:50pm 6ft 9s 6s 13 16 mph 1013.5mb 57f 58f
7:50pm 7ft 8s 7s 16 18 mph 1013.4mb 57f 58f
6:50pm 6.5ft 9s 7s 16 20 mph 1013.6mb 57f 58f
5:50pm 7ft 9s 6s 16 20 mph 1013.6mb 57f 57f
4:50pm 7.5ft 8s 7s 18 22 mph 1014.3mb 57f 56f
3:50pm 7ft 8s 6s 18 22 mph 1014.7mb 57f 56f
2:50pm 7.5ft 9s 7s 16 20 mph 1015.2mb 58f 56f
1:50pm 6ft 8s 6s 16 20 mph 1015.3mb 58f 56f
12:50pm 5.5ft 8s 6s 16 18 mph 1015.7mb 57f 55f
11:50am 6.5ft 9s 7s 13 18 mph 1016.1mb 57f 55f
10:50am 6ft 8s 7s 9 13 mph 1016.4mb 57f 55f
9:50am 5.5ft 9s 7s 11 13 mph 1016.3mb 57f 55f
8:50am 6ft 8s 7s 9 13 mph 1016.4mb 57f 55f
7:50am 5ft 8s 6s 7 11 mph 1016.2mb 57f 54f
6:50am 5.5ft 8s 7s 4 7 mph 1015.8mb 57f 54f
5:50am 5ft 7s 6s 7 9 mph 1015.5mb 57f 54f
4:50am 4.5ft 8s 6s 7 9 mph 1015.5mb 57f 54f
3:50am 4.5ft 8s 7s 7 9 mph 1015.5mb 58f 54f
2:50am 4ft 8s 7s 7 9 mph 1015.8mb 58f 54f
1:50am 4ft 8s 7s 7 9 mph 1016mb 58f 54f
12:50am 4.5ft 8s 7s 7 9 mph 1016mb 58f 55f
Wed 07/26 11:50pm 4ft 8s 7s 7 9 mph 1016.3mb 58f 55f
10:50pm 4ft 8s 7s 4 9 mph 1016.3mb 57f 55f
9:50pm 4ft 8s 7s 7 9 mph 1016.2mb 57f 56f
8:50pm 3.5ft 8s 7s 7 9 mph 1016.1mb 58f 55f
7:50pm 4.5ft 8s 7s 7 9 mph 1015.8mb 58f 56f
6:50pm 4.5ft 8s 7s 7 11 mph 1015.7mb 58f 57f
5:50pm 4ft 9s 7s 7 9 mph 1016mb 58f 58f
4:50pm 4ft 8s 7s 7 7 mph 1016.4mb 58f 59f
3:50pm 3.5ft 9s 7s 4 7 mph 1016.7mb 59f 59f
2:50pm 4.5ft 9s 7s 4 4 mph 1017mb 60f 59f
1:50pm 3.5ft 9s 7s 2 4 mph 1017.3mb 59f 59f
12:50pm 4ft 8s 7s 2 4 mph 1017.7mb 58f 59f
11:50am 4ft 9s 7s 4 7 mph 1017.8mb 58f 58f
10:50am 4ft 9s 7s 4 7 mph 1017.9mb 58f 57f
9:50am 4.5ft 9s 7s 4 4 mph 1017.9mb 58f 57f
8:50am 4.5ft 9s 7s 7 7 mph 1017.6mb 58f 57f
7:50am 4.5ft 8s 7s 7 9 mph 1017.2mb 58f 58f
6:50am 4.5ft 9s 7s 7 11 mph 1016.8mb 58f 58f
5:50am 5ft 9s 7s 4 7 mph 1016.5mb 58f 58f
4:50am 4.5ft 9s 7s 7 9 mph 1016.1mb 58f 58f
3:50am 4.5ft 10s 7s 9 11 mph 1015.6mb 58f 58f
2:50am 4.5ft 10s 7s 7 11 mph 1015.6mb 58f 58f
1:50am 5.5ft 10s 7s 9 11 mph 1015.5mb 57f 58f
12:50am 5.5ft 10s 7s 11 16 mph 1015.5mb 58f 58f
Tue 07/25 11:50pm 6ft 10s 8s 9 11 mph 1015.6mb 57f 58f
10:50pm 5.5ft 10s 7s 7 9 mph 1015.5mb 57f 58f
9:50pm 5.5ft 9s 7s 7 9 mph 1015.3mb 57f 58f
8:50pm 5.5ft 10s 7s 9 11 mph 1014.6mb 57f 58f
7:50pm 5ft 9s 7s 9 11 mph 1014.2mb 57f 58f
6:50pm 6.5ft 10s 8s 11 13 mph 1014.1mb 58f 58f
5:50pm 5.5ft 10s 7s 11 16 mph 1014mb 58f 58f
4:50pm 6ft 10s 7s 13 16 mph 1014.2mb 58f 58f
3:50pm 5ft 10s 7s 13 16 mph 1014.5mb 58f 58f
2:50pm 5.5ft 10s 7s 13 16 mph 1014.8mb 58f 58f
1:50pm 6ft 10s 7s 13 16 mph 1014.7mb 57f 57f
12:50pm 6ft 10s 7s 13 18 mph 1014.7mb 57f 57f
11:50am 5.5ft 11s 7s 16 18 mph 1014.8mb 57f 57f
10:50am 5ft 11s 7s 13 18 mph 1014.7mb 57f 57f
9:50am 5ft 11s 7s 13 16 mph 1014.3mb 58f 57f
8:50am 5.5ft 8s 7s 13 16 mph 1013.9mb 58f 57f
7:50am 5ft 9s 7s 13 16 mph 1013.4mb 58f 57f
6:50am 5.5ft 11s 7s 9 9 mph 1013.1mb 58f 57f
5:50am 5ft 10s 6s 9 13 mph 1012.6mb 58f 56f
4:50am 5.5ft 9s 7s 13 16 mph 1012.1mb 58f 56f
3:50am 5.5ft 9s 7s 9 11 mph 1011.9mb 57f 56f
2:50am 6ft 9s 7s 13 16 mph 1011.7mb 58f 57f
1:50am 6.5ft 10s 7s 13 16 mph 1011.8mb 58f 57f
12:50am 7ft 10s 8s 11 16 mph 1011.6mb 58f 57f
Mon 07/24 11:50pm 7ft 11s 8s 13 16 mph 1011.7mb 58f 57f
10:50pm 6ft 9s 7s 11 13 mph 1011.5mb 58f 58f
9:50pm 6ft 10s 7s 11 13 mph 1011.3mb 58f 58f
8:50pm 7ft 11s 8s 11 13 mph 1010.9mb 58f 57f
7:50pm 6.5ft 11s 8s 11 13 mph 1010.9mb 58f 57f
6:50pm 7ft 10s 8s 13 16 mph 1010.7mb 58f 57f
5:50pm 6.5ft 10s 8s 11 13 mph 1010.9mb 58f 57f